Time;durP1;ratioP1;P1;durP2;ratioP2;P2;SDS_P1;SDS_P2;PMS_P1;PMS_P2;Temp;Humidity;BMP_temperature;BMP_pressure;BME280_temperature;BME280_humidity;BME280_pressure;Samples;Min_cycle;Max_cycle;Signal;HPM_P1;HPM_P2
2023/05/22 00:01:31;;;;;;;;;;;;;;;;;;5058560;28;19936;-81
2023/05/22 00:03:56;;;;;;;;;;;;;;;;;;5055254;28;20004;-81
2023/05/22 00:06:22;;;;;;;;;;;;;;;;;;5053494;28;19956;-79
2023/05/22 00:08:50;;;;;;;;;;;;;;;;;;5053857;28;20386;-82
2023/05/22 00:11:15;;;;;;;;;;;;;;;;;;5034656;28;19917;-81
2023/05/22 00:13:43;;;;;;;;;;;;;;;;;;5035172;28;19913;-80
2023/05/22 00:16:12;;;;;;;;;;;;;;;;;;5035272;28;19913;-81
2023/05/22 00:18:41;;;;;;;;;;;;;;;;;;5035576;28;19959;-81
2023/05/22 00:21:09;;;;;;;;;;;;;;;;;;5025457;28;20004;-80
2023/05/22 00:23:35;;;;;;;;;;;;;;;;;;5044582;28;19927;-80
2023/05/22 00:26:03;;;;;;;;;;;;;;;;;;5061902;28;19960;-81
2023/05/22 00:28:33;;;;;;;;;;;;;;;;;;5036998;28;20332;-80
2023/05/22 00:31:02;;;;;;;;;;;;;;;;;;5017115;28;19983;-80
2023/05/22 00:33:30;;;;;;;;;;;;;;;;;;5033384;28;20396;-80
2023/05/22 00:35:58;;;;;;;;;;;;;;;;;;5033046;28;20452;-82
2023/05/22 00:38:31;;;;;;;;;;;;;;;;;;5032984;28;19920;-80
2023/05/22 00:40:56;;;;;;;;;;;;;;;;;;5033621;28;19952;-80
2023/05/22 00:43:25;;;;;;;;;;;;;;;;;;5044850;28;20375;-80
2023/05/22 00:45:51;;;;;;;;;;;;;;;;;;5053581;28;19919;-83
2023/05/22 00:48:16;;;;;;;;;;;;;;;;;;5052582;28;19921;-80
2023/05/22 00:50:48;;;;;;;;;;;;;;;;;;5054152;28;19966;-81
2023/05/22 00:53:16;;;;;;;;;;;;;;;;;;5052811;28;19912;-80
2023/05/22 00:55:41;;;;;;;;;;;;;;;;;;5054070;28;19917;-81
2023/05/22 00:58:06;;;;;;;;;;;;;;;;;;5051807;28;20014;-81
2023/05/22 01:00:33;;;;;;;;;;;;;;;;;;5052525;28;19999;-80
2023/05/22 01:03:00;;;;;;;;;;;;;;;;;;5052402;28;19919;-81
2023/05/22 01:05:26;;;;;;;;;;;;;;;;;;5052493;28;20450;-79
2023/05/22 01:07:52;;;;;;;;;;;;;;;;;;5055528;28;19963;-81
2023/05/22 01:10:22;;;;;;;;;;;;;;;;;;5054221;28;20455;-79
2023/05/22 01:12:48;;;;;;;;;;;;;;;;;;5053600;28;19940;-79
2023/05/22 01:15:16;;;;;;;;;;;;;;;;;;5057890;28;19920;-80
2023/05/22 01:17:45;;;;;;;;;;;;;;;;;;5063150;28;19913;-80
2023/05/22 01:20:11;;;;;;;;;;;;;;;;;;5061818;28;19938;-81
2023/05/22 01:22:42;;;;;;;;;;;;;;;;;;5059891;28;19912;-81
2023/05/22 01:25:07;;;;;;;;;;;;;;;;;;5061115;28;19912;-80
2023/05/22 01:27:34;;;;;;;;;;;;;;;;;;5058371;28;20346;-81
2023/05/22 01:29:59;;;;;;;;;;;;;;;;;;5054421;28;19916;-80
2023/05/22 01:32:25;;;;;;;;;;;;;;;;;;5047465;28;20380;-82
2023/05/22 01:34:50;;;;;;;;;;;;;;;;;;5032024;28;19913;-81
2023/05/22 01:37:16;;;;;;;;;;;;;;;;;;5048294;28;19913;-82
2023/05/22 01:39:41;;;;;;;;;;;;;;;;;;5032643;28;19913;-81
2023/05/22 01:42:07;;;;;;;;;;;;;;;;;;5032546;28;19913;-82
2023/05/22 01:44:32;;;;;;;;;;;;;;;;;;5032480;28;19967;-81
2023/05/22 01:47:03;;;;;;;;;;;;;;;;;;5031546;28;19913;-81
2023/05/22 01:49:32;;;;;;;;;;;;;;;;;;5049412;28;19912;-81
2023/05/22 01:51:57;;;;;;;;;;;;;;;;;;5051141;28;20004;-81
2023/05/22 01:54:23;;;;;;;;;;;;;;;;;;5052390;28;20047;-82
2023/05/22 01:56:48;;;;;;;;;;;;;;;;;;5051165;28;19913;-81
2023/05/22 01:59:13;;;;;;;;;;;;;;;;;;5034333;28;19923;-80
2023/05/22 02:01:39;;;;;;;;;;;;;;;;;;5051168;28;19913;-81
2023/05/22 02:04:05;;;;;;;;;;;;;;;;;;5017081;28;19917;-82
2023/05/22 02:06:31;;;;;;;;;;;;;;;;;;5034879;28;19963;-82
2023/05/22 02:08:56;;;;;;;;;;;;;;;;;;5051104;28;19925;-81
2023/05/22 02:11:21;;;;;;;;;;;;;;;;;;5052035;28;19983;-81
2023/05/22 02:13:47;;;;;;;;;;;;;;;;;;5050984;28;19909;-80
2023/05/22 02:16:12;;;;;;;;;;;;;;;;;;5052169;28;20323;-79
2023/05/22 02:18:40;;;;;;;;;;;;;;;;;;5050129;28;19948;-82
2023/05/22 02:21:08;;;;;;;;;;;;;;;;;;5064009;28;19913;-80
2023/05/22 02:23:33;;;;;;;;;;;;;;;;;;5014467;28;19917;-80
2023/05/22 02:25:59;;;;;;;;;;;;;;;;;;5030992;28;19920;-79
2023/05/22 02:28:25;;;;;;;;;;;;;;;;;;4998114;28;19956;-80
2023/05/22 02:30:50;;;;;;;;;;;;;;;;;;5030709;28;19931;-81
2023/05/22 02:33:17;;;;;;;;;;;;;;;;;;5018208;28;19920;-81
2023/05/22 02:35:42;;;;;;;;;;;;;;;;;;5021467;28;20062;-80
2023/05/22 02:38:11;;;;;;;;;;;;;;;;;;5056526;28;19925;-80
2023/05/22 02:40:36;;;;;;;;;;;;;;;;;;5029306;28;19935;-81
2023/05/22 02:43:01;;;;;;;;;;;;;;;;;;5074521;28;19913;-80
2023/05/22 02:45:32;;;;;;;;;;;;;;;;;;5072970;28;19935;-80
2023/05/22 02:48:00;;;;;;;;;;;;;;;;;;5075707;28;19917;-80
2023/05/22 02:50:28;;;;;;;;;;;;;;;;;;5071045;28;19913;-80
2023/05/22 02:52:54;;;;;;;;;;;;;;;;;;5068419;28;19924;-80
2023/05/22 02:55:19;;;;;;;;;;;;;;;;;;5063234;28;19912;-81
2023/05/22 02:57:45;;;;;;;;;;;;;;;;;;5055287;28;20404;-82
2023/05/22 03:00:10;;;;;;;;;;;;;;;;;;5055848;28;19920;-81
2023/05/22 03:02:36;;;;;;;;;;;;;;;;;;5038113;28;20405;-81
2023/05/22 03:05:01;;;;;;;;;;;;;;;;;;5055035;28;19976;-81
2023/05/22 03:07:28;;;;;;;;;;;;;;;;;;5056080;28;19912;-81
2023/05/22 03:09:53;;;;;;;;;;;;;;;;;;5054775;28;19931;-81
2023/05/22 03:12:19;;;;;;;;;;;;;;;;;;5038046;28;20311;-79
2023/05/22 03:14:45;;;;;;;;;;;;;;;;;;5038196;28;19920;-81
2023/05/22 03:17:10;;;;;;;;;;;;;;;;;;5054826;28;19927;-81
2023/05/22 03:19:35;;;;;;;;;;;;;;;;;;5055239;28;20303;-81
2023/05/22 03:22:01;;;;;;;;;;;;;;;;;;5055436;28;20038;-82
2023/05/22 03:24:28;;;;;;;;;;;;;;;;;;5055073;28;19913;-81
2023/05/22 03:26:53;;;;;;;;;;;;;;;;;;5037136;28;19966;-81
2023/05/22 03:29:31;;;;;;;;;;;;;;;;;;5050662;28;20611;-81
2023/05/22 03:31:56;;;;;;;;;;;;;;;;;;5050075;28;20004;-80
2023/05/22 03:34:26;;;;;;;;;;;;;;;;;;5039647;28;19913;-80
2023/05/22 03:36:52;;;;;;;;;;;;;;;;;;5056032;28;19957;-82
2023/05/22 03:39:17;;;;;;;;;;;;;;;;;;5042408;28;19959;-81
2023/05/22 03:41:55;;;;;;;;;;;;;;;;;;5056994;28;19936;-80
2023/05/22 03:44:22;;;;;;;;;;;;;;;;;;5070206;28;19913;-81
2023/05/22 03:46:48;;;;;;;;;;;;;;;;;;5038475;28;19920;-81
2023/05/22 03:49:14;;;;;;;;;;;;;;;;;;5022165;28;19924;-81
2023/05/22 03:51:39;;;;;;;;;;;;;;;;;;5020249;28;20308;-80
2023/05/22 03:54:04;;;;;;;;;;;;;;;;;;5034518;28;19913;-81
2023/05/22 03:56:30;;;;;;;;;;;;;;;;;;5018219;28;20388;-82
2023/05/22 03:58:55;;;;;;;;;;;;;;;;;;5036766;28;19975;-81
2023/05/22 04:01:23;;;;;;;;;;;;;;;;;;5054422;28;19920;-79
2023/05/22 04:03:49;;;;;;;;;;;;;;;;;;5053691;28;20372;-81
2023/05/22 04:06:14;;;;;;;;;;;;;;;;;;5054763;28;19916;-80
2023/05/22 04:08:40;;;;;;;;;;;;;;;;;;5053725;28;20284;-81
2023/05/22 04:11:05;;;;;;;;;;;;;;;;;;5054087;28;20321;-82
2023/05/22 04:13:31;;;;;;;;;;;;;;;;;;5054676;28;20003;-81
2023/05/22 04:16:00;;;;;;;;;;;;;;;;;;5052311;28;20020;-81
2023/05/22 04:18:26;;;;;;;;;;;;;;;;;;5054229;28;19920;-82
2023/05/22 04:20:51;;;;;;;;;;;;;;;;;;5036108;28;19909;-81
2023/05/22 04:23:17;;;;;;;;;;;;;;;;;;5052730;28;19920;-80
2023/05/22 04:25:43;;;;;;;;;;;;;;;;;;5036086;28;19999;-82
2023/05/22 04:28:11;;;;;;;;;;;;;;;;;;5053922;28;20372;-81
2023/05/22 04:30:38;;;;;;;;;;;;;;;;;;5052417;28;19916;-82
2023/05/22 04:33:04;;;;;;;;;;;;;;;;;;5051669;28;20383;-81
2023/05/22 04:35:29;;;;;;;;;;;;;;;;;;5036288;28;20011;-81
2023/05/22 04:37:55;;;;;;;;;;;;;;;;;;5053778;28;19919;-82
2023/05/22 04:40:20;;;;;;;;;;;;;;;;;;5052290;28;20371;-82
2023/05/22 04:42:45;;;;;;;;;;;;;;;;;;5052659;28;20363;-81
2023/05/22 04:45:12;;;;;;;;;;;;;;;;;;5052460;28;19916;-80
2023/05/22 04:47:40;;;;;;;;;;;;;;;;;;5052610;28;19912;-81
2023/05/22 04:50:06;;;;;;;;;;;;;;;;;;5051154;28;20479;-83
2023/05/22 04:52:32;;;;;;;;;;;;;;;;;;5052341;28;20003;-81
2023/05/22 04:54:57;;;;;;;;;;;;;;;;;;5018761;28;20008;-79
2023/05/22 04:57:24;;;;;;;;;;;;;;;;;;5035849;28;19999;-81
2023/05/22 04:59:50;;;;;;;;;;;;;;;;;;5052088;28;19927;-82
2023/05/22 05:02:16;;;;;;;;;;;;;;;;;;5035458;28;19913;-81
2023/05/22 05:04:42;;;;;;;;;;;;;;;;;;5037637;28;20047;-82
2023/05/22 05:07:08;;;;;;;;;;;;;;;;;;5045321;28;19920;-80
2023/05/22 05:09:33;;;;;;;;;;;;;;;;;;5049055;28;19909;-82
2023/05/22 05:12:00;;;;;;;;;;;;;;;;;;5048872;28;20434;-81
2023/05/22 05:14:25;;;;;;;;;;;;;;;;;;5050144;28;19909;-80
2023/05/22 05:16:50;;;;;;;;;;;;;;;;;;5050695;28;20451;-82
2023/05/22 05:19:16;;;;;;;;;;;;;;;;;;5051857;28;19916;-82
2023/05/22 05:21:41;;;;;;;;;;;;;;;;;;5038436;28;19913;-81
2023/05/22 05:24:08;;;;;;;;;;;;;;;;;;5043358;28;20008;-82
2023/05/22 05:26:33;;;;;;;;;;;;;;;;;;5058151;28;20340;-80
2023/05/22 05:28:59;;;;;;;;;;;;;;;;;;5045174;28;20381;-81
2023/05/22 05:31:35;;;;;;;;;;;;;;;;;;5044197;28;19917;-81
2023/05/22 05:34:06;;;;;;;;;;;;;;;;;;5061849;28;19919;-80
2023/05/22 05:36:58;;;;;;;;;;;;;;;;;;5059631;28;19954;-81
2023/05/22 05:39:24;;;;;;;;;;;;;;;;;;5057105;28;20375;-82
2023/05/22 05:41:50;;;;;;;;;;;;;;;;;;5042979;28;19927;-81
2023/05/22 05:44:15;;;;;;;;;;;;;;;;;;5060165;28;19917;-80
2023/05/22 05:46:41;;;;;;;;;;;;;;;;;;5059001;28;19912;-81
2023/05/22 05:49:10;;;;;;;;;;;;;;;;;;5024685;28;20291;-82
2023/05/22 05:51:37;;;;;;;;;;;;;;;;;;5055435;28;19956;-80
2023/05/22 05:54:06;;;;;;;;;;;;;;;;;;5037151;28;20045;-81
2023/05/22 05:56:32;;;;;;;;;;;;;;;;;;5052838;28;20368;-80
2023/05/22 05:59:01;;;;;;;;;;;;;;;;;;5051594;28;19999;-81
2023/05/22 06:01:38;;;;;;;;;;;;;;;;;;5052584;28;19920;-81
2023/05/22 06:04:11;;;;;;;;;;;;;;;;;;5035188;28;19948;-80
2023/05/22 06:06:38;;;;;;;;;;;;;;;;;;5018246;28;19948;-80
2023/05/22 06:09:09;;;;;;;;;;;;;;;;;;5035284;28;19913;-80
2023/05/22 06:11:55;;;;;;;;;;;;;;;;;;5052218;28;19923;-81
2023/05/22 06:14:21;;;;;;;;;;;;;;;;;;5036324;28;19959;-80
2023/05/22 06:16:46;;;;;;;;;;;;;;;;;;5032319;28;20276;-82
2023/05/22 06:19:12;;;;;;;;;;;;;;;;;;5032240;28;20020;-81
2023/05/22 06:21:37;;;;;;;;;;;;;;;;;;5047513;28;19953;-82
2023/05/22 06:24:03;;;;;;;;;;;;;;;;;;5032359;28;20051;-81
2023/05/22 06:26:28;;;;;;;;;;;;;;;;;;5047472;28;19975;-82
2023/05/22 06:35:51;;;;;;;;;;;;;;;;;;5053131;28;20375;-82
2023/05/22 06:38:26;;;;;;;;;;;;;;;;;;5034594;28;19960;-81
2023/05/22 06:40:52;;;;;;;;;;;;;;;;;;5050938;28;19972;-80
2023/05/22 06:43:21;;;;;;;;;;;;;;;;;;5033991;28;20394;-82
2023/05/22 06:45:54;;;;;;;;;;;;;;;;;;5050838;28;19921;-80
2023/05/22 06:48:22;;;;;;;;;;;;;;;;;;5051568;28;20047;-80
2023/05/22 06:51:03;;;;;;;;;;;;;;;;;;5052692;28;19921;-79
2023/05/22 06:53:29;;;;;;;;;;;;;;;;;;5053321;28;20383;-80
2023/05/22 06:55:54;;;;;;;;;;;;;;;;;;5034201;28;19920;-79
2023/05/22 06:58:30;;;;;;;;;;;;;;;;;;5050652;28;20292;-78
2023/05/22 07:00:55;;;;;;;;;;;;;;;;;;5033529;28;19913;-79
2023/05/22 07:03:27;;;;;;;;;;;;;;;;;;5039950;28;19913;-80
2023/05/22 07:06:14;;;;;;;;;;;;;;;;;;5036679;28;19927;-79
2023/05/22 07:08:39;;;;;;;;;;;;;;;;;;5025297;28;19936;-79
2023/05/22 07:11:06;;;;;;;;;;;;;;;;;;5050169;28;20371;-79
2023/05/22 07:13:31;;;;;;;;;;;;;;;;;;5036112;28;20394;-80
2023/05/22 07:15:57;;;;;;;;;;;;;;;;;;5038250;28;19913;-79
2023/05/22 07:18:23;;;;;;;;;;;;;;;;;;5054571;28;19913;-80
2023/05/22 07:20:48;;;;;;;;;;;;;;;;;;5053777;28;19913;-80
2023/05/22 07:23:17;;;;;;;;;;;;;;;;;;5069811;28;19955;-80
2023/05/22 07:25:42;;;;;;;;;;;;;;;;;;5041508;28;19913;-81
2023/05/22 07:28:09;;;;;;;;;;;;;;;;;;5067263;28;20015;-80
2023/05/22 07:30:43;;;;;;;;;;;;;;;;;;5058692;28;19917;-80
2023/05/22 07:33:10;;;;;;;;;;;;;;;;;;5069482;28;19917;-80
2023/05/22 07:35:35;;;;;;;;;;;;;;;;;;5063673;28;19920;-79
2023/05/22 07:38:01;;;;;;;;;;;;;;;;;;5047394;28;19913;-79
2023/05/22 07:40:26;;;;;;;;;;;;;;;;;;5053649;28;19916;-79
2023/05/22 07:42:52;;;;;;;;;;;;;;;;;;5042666;28;19917;-79
2023/05/22 07:45:18;;;;;;;;;;;;;;;;;;5072626;28;19913;-81
2023/05/22 07:47:43;;;;;;;;;;;;;;;;;;5039018;28;20391;-78
2023/05/22 07:50:09;;;;;;;;;;;;;;;;;;5053786;28;19917;-80
2023/05/22 07:52:37;;;;;;;;;;;;;;;;;;5037853;28;19912;-80
2023/05/22 07:55:03;;;;;;;;;;;;;;;;;;5038691;28;19960;-81
2023/05/22 07:57:29;;;;;;;;;;;;;;;;;;5054865;28;19935;-82
2023/05/22 07:59:58;;;;;;;;;;;;;;;;;;5065070;28;19912;-81
2023/05/22 08:02:23;;;;;;;;;;;;;;;;;;5067373;28;19913;-80
2023/05/22 08:04:49;;;;;;;;;;;;;;;;;;5067953;28;19986;-80
2023/05/22 08:07:14;;;;;;;;;;;;;;;;;;5063411;28;19916;-81
2023/05/22 08:09:40;;;;;;;;;;;;;;;;;;5040738;28;19970;-82
2023/05/22 08:12:05;;;;;;;;;;;;;;;;;;5069519;28;20319;-81
2023/05/22 08:14:31;;;;;;;;;;;;;;;;;;5062410;28;19921;-81
2023/05/22 08:16:57;;;;;;;;;;;;;;;;;;5064561;28;19913;-81
2023/05/22 08:19:23;;;;;;;;;;;;;;;;;;5054969;28;20019;-82
2023/05/22 08:21:48;;;;;;;;;;;;;;;;;;5070504;28;19974;-82
2023/05/22 08:24:14;;;;;;;;;;;;;;;;;;5058467;28;19938;-82
2023/05/22 08:26:40;;;;;;;;;;;;;;;;;;5066793;28;20318;-81
2023/05/22 08:29:05;;;;;;;;;;;;;;;;;;5054289;28;19936;-83
2023/05/22 08:31:33;;;;;;;;;;;;;;;;;;5071535;28;20405;-82
2023/05/22 08:34:01;;;;;;;;;;;;;;;;;;5042833;28;19919;-82
2023/05/22 08:36:26;;;;;;;;;;;;;;;;;;5068993;28;19912;-83
2023/05/22 08:38:52;;;;;;;;;;;;;;;;;;5056172;28;19935;-84
2023/05/22 08:41:17;;;;;;;;;;;;;;;;;;5071752;28;19912;-83
2023/05/22 08:43:42;;;;;;;;;;;;;;;;;;5059643;28;19913;-86
2023/05/22 08:46:08;;;;;;;;;;;;;;;;;;5069332;28;20017;-83
2023/05/22 08:48:36;;;;;;;;;;;;;;;;;;5049746;28;19968;-84
2023/05/22 08:51:02;;;;;;;;;;;;;;;;;;5060797;28;19916;-83
2023/05/22 08:53:30;;;;;;;;;;;;;;;;;;5071122;28;20375;-83
2023/05/22 08:55:56;;;;;;;;;;;;;;;;;;5049293;28;19963;-83
2023/05/22 08:58:21;;;;;;;;;;;;;;;;;;5073537;28;19971;-83
2023/05/22 09:00:47;;;;;;;;;;;;;;;;;;5060155;28;19912;-83
2023/05/22 09:03:13;;;;;;;;;;;;;;;;;;5061784;28;19913;-83
2023/05/22 09:05:39;;;;;;;;;;;;;;;;;;5050244;28;20007;-83
2023/05/22 09:08:07;;;;;;;;;;;;;;;;;;5066567;28;19999;-81
2023/05/22 09:10:32;;;;;;;;;;;;;;;;;;5067453;28;19959;-81
2023/05/22 09:12:58;;;;;;;;;;;;;;;;;;5058495;28;19994;-83
2023/05/22 09:15:23;;;;;;;;;;;;;;;;;;5070493;28;19971;-82
2023/05/22 09:17:49;;;;;;;;;;;;;;;;;;5040037;28;19920;-81
2023/05/22 09:20:14;;;;;;;;;;;;;;;;;;5057425;28;19917;-82
2023/05/22 09:22:40;;;;;;;;;;;;;;;;;;5036707;28;20261;-83
2023/05/22 09:25:08;;;;;;;;;;;;;;;;;;5071853;28;19913;-82
2023/05/22 09:27:34;;;;;;;;;;;;;;;;;;5062162;28;20015;-83
2023/05/22 09:29:59;;;;;;;;;;;;;;;;;;5064946;28;19998;-83
2023/05/22 09:32:25;;;;;;;;;;;;;;;;;;5070235;28;19970;-81
2023/05/22 09:34:51;;;;;;;;;;;;;;;;;;5058867;28;20280;-82
2023/05/22 09:37:19;;;;;;;;;;;;;;;;;;5068834;28;19913;-82
2023/05/22 09:39:44;;;;;;;;;;;;;;;;;;5064499;28;19916;-82
2023/05/22 09:42:13;;;;;;;;;;;;;;;;;;5051700;28;20427;-83
2023/05/22 09:44:41;;;;;;;;;;;;;;;;;;5068106;28;19913;-84
2023/05/22 09:47:06;;;;;;;;;;;;;;;;;;5043674;28;19912;-84
2023/05/22 09:49:32;;;;;;;;;;;;;;;;;;5049331;28;20000;-83
2023/05/22 09:51:57;;;;;;;;;;;;;;;;;;5064360;28;20349;-82
2023/05/22 09:54:22;;;;;;;;;;;;;;;;;;5059092;28;19928;-85
2023/05/22 09:56:49;;;;;;;;;;;;;;;;;;5069506;28;20382;-83
2023/05/22 09:59:14;;;;;;;;;;;;;;;;;;5056775;28;19912;-90
2023/05/22 10:01:39;;;;;;;;;;;;;;;;;;5065504;28;19965;-83
2023/05/22 10:04:05;;;;;;;;;;;;;;;;;;5064660;28;20371;-88
2023/05/22 10:06:37;;;;;;;;;;;;;;;;;;5047096;28;19913;-88
2023/05/22 10:09:05;;;;;;;;;;;;;;;;;;5024002;28;20375;-90
2023/05/22 10:11:30;;;;;;;;;;;;;;;;;;5066324;28;19925;-87
2023/05/22 10:13:57;;;;;;;;;;;;;;;;;;5052532;28;19991;-88
2023/05/22 10:16:24;;;;;;;;;;;;;;;;;;5051364;28;19965;-89
2023/05/22 10:18:50;;;;;;;;;;;;;;;;;;5039017;28;20477;-89
2023/05/22 10:21:15;;;;;;;;;;;;;;;;;;5058077;28;19912;-86
2023/05/22 10:23:41;;;;;;;;;;;;;;;;;;5065939;28;19913;-88
2023/05/22 10:26:06;;;;;;;;;;;;;;;;;;5068198;28;19912;-88
2023/05/22 10:28:31;;;;;;;;;;;;;;;;;;5044707;28;19970;-86
2023/05/22 10:30:57;;;;;;;;;;;;;;;;;;5068971;28;19944;-88
2023/05/22 10:33:41;;;;;;;;;;;;;;;;;;5071311;28;19917;-87
2023/05/22 10:36:09;;;;;;;;;;;;;;;;;;5067598;28;19920;-89
2023/05/22 10:38:35;;;;;;;;;;;;;;;;;;5053570;28;20303;-88
2023/05/22 10:41:00;;;;;;;;;;;;;;;;;;5068713;28;19913;-88
2023/05/22 10:43:25;;;;;;;;;;;;;;;;;;5074517;28;19916;-87
2023/05/22 10:45:51;;;;;;;;;;;;;;;;;;5076813;28;19912;-84
2023/05/22 10:48:16;;;;;;;;;;;;;;;;;;5083978;28;19919;-88
2023/05/22 10:50:42;;;;;;;;;;;;;;;;;;5052351;28;19984;-88
2023/05/22 10:53:08;;;;;;;;;;;;;;;;;;5041843;28;20286;-85
2023/05/22 10:55:33;;;;;;;;;;;;;;;;;;5064337;28;19951;-86
2023/05/22 10:57:58;;;;;;;;;;;;;;;;;;5059273;28;20011;-86
2023/05/22 11:00:24;;;;;;;;;;;;;;;;;;5061835;28;19917;-87
2023/05/22 11:02:54;;;;;;;;;;;;;;;;;;5060801;28;19913;-87
2023/05/22 11:05:21;;;;;;;;;;;;;;;;;;5070186;28;20012;-84
2023/05/22 11:07:46;;;;;;;;;;;;;;;;;;5065671;28;19956;-86
2023/05/22 11:10:12;;;;;;;;;;;;;;;;;;5062188;28;19916;-86
2023/05/22 11:12:38;;;;;;;;;;;;;;;;;;5071109;28;19912;-84
2023/05/22 11:15:04;;;;;;;;;;;;;;;;;;5059230;28;20011;-87
2023/05/22 11:17:31;;;;;;;;;;;;;;;;;;5067674;28;20441;-87
2023/05/22 11:19:57;;;;;;;;;;;;;;;;;;5059426;28;19912;-85
2023/05/22 11:22:23;;;;;;;;;;;;;;;;;;5071719;28;19916;-85
2023/05/22 11:24:48;;;;;;;;;;;;;;;;;;5063350;28;19991;-85
2023/05/22 11:27:13;;;;;;;;;;;;;;;;;;5074190;28;19925;-84
2023/05/22 11:29:39;;;;;;;;;;;;;;;;;;5065863;28;20391;-84
2023/05/22 11:32:07;;;;;;;;;;;;;;;;;;5069112;28;19917;-86
2023/05/22 11:34:33;;;;;;;;;;;;;;;;;;5042690;28;19980;-84
2023/05/22 11:36:58;;;;;;;;;;;;;;;;;;5071895;28;19912;-87
2023/05/22 11:39:24;;;;;;;;;;;;;;;;;;5066105;28;20410;-87
2023/05/22 11:41:49;;;;;;;;;;;;;;;;;;5065836;28;19967;-89
2023/05/22 11:44:15;;;;;;;;;;;;;;;;;;5069212;28;20322;-85
2023/05/22 11:46:40;;;;;;;;;;;;;;;;;;5042734;28;19920;-86
2023/05/22 11:49:06;;;;;;;;;;;;;;;;;;5071206;28;20003;-89
2023/05/22 11:51:32;;;;;;;;;;;;;;;;;;5062508;28;19916;-88
2023/05/22 11:53:57;;;;;;;;;;;;;;;;;;5064915;28;19913;-86
2023/05/22 11:56:22;;;;;;;;;;;;;;;;;;5069077;28;20286;-81
2023/05/22 11:58:48;;;;;;;;;;;;;;;;;;5059227;28;19920;-85
2023/05/22 12:01:13;;;;;;;;;;;;;;;;;;5053857;28;19979;-87
2023/05/22 12:03:39;;;;;;;;;;;;;;;;;;5064433;28;19912;-87
2023/05/22 12:06:04;;;;;;;;;;;;;;;;;;5064259;28;19959;-85
2023/05/22 12:08:30;;;;;;;;;;;;;;;;;;5053276;28;20011;-85
2023/05/22 12:10:55;;;;;;;;;;;;;;;;;;5057641;28;19919;-81
2023/05/22 12:13:24;;;;;;;;;;;;;;;;;;5069367;28;19952;-83
2023/05/22 12:15:49;;;;;;;;;;;;;;;;;;5064841;28;20483;-82
2023/05/22 12:18:15;;;;;;;;;;;;;;;;;;5061431;28;19979;-82
2023/05/22 12:20:40;;;;;;;;;;;;;;;;;;5046796;28;19958;-83
2023/05/22 12:23:06;;;;;;;;;;;;;;;;;;5077358;28;19928;-83
2023/05/22 12:25:31;;;;;;;;;;;;;;;;;;5075892;28;19916;-84
2023/05/22 12:27:57;;;;;;;;;;;;;;;;;;5085617;28;19935;-83
2023/05/22 12:30:25;;;;;;;;;;;;;;;;;;5090656;28;19928;-84
2023/05/22 12:32:51;;;;;;;;;;;;;;;;;;5079208;28;20386;-85
2023/05/22 12:35:41;;;;;;;;;;;;;;;;;;5079937;28;20299;-83
2023/05/22 12:38:09;;;;;;;;;;;;;;;;;;5079563;28;19972;-84
2023/05/22 12:40:35;;;;;;;;;;;;;;;;;;5064991;28;19992;-83
2023/05/22 12:43:01;;;;;;;;;;;;;;;;;;5072430;28;19921;-83
2023/05/22 12:45:26;;;;;;;;;;;;;;;;;;5063320;28;20325;-82
2023/05/22 12:47:52;;;;;;;;;;;;;;;;;;5072943;28;20375;-83
2023/05/22 12:50:17;;;;;;;;;;;;;;;;;;5073973;28;20447;-82
2023/05/22 12:52:43;;;;;;;;;;;;;;;;;;5073347;28;20358;-84
2023/05/22 12:55:08;;;;;;;;;;;;;;;;;;5072954;28;20236;-83
2023/05/22 12:57:34;;;;;;;;;;;;;;;;;;5073698;28;20075;-81
2023/05/22 13:00:04;;;;;;;;;;;;;;;;;;5072275;28;19939;-83
2023/05/22 13:02:30;;;;;;;;;;;;;;;;;;5059772;28;19938;-84
2023/05/22 13:04:55;;;;;;;;;;;;;;;;;;5072087;28;19913;-82
2023/05/22 13:07:21;;;;;;;;;;;;;;;;;;5062971;28;19919;-83
2023/05/22 13:09:46;;;;;;;;;;;;;;;;;;5066564;28;19913;-84
2023/05/22 13:12:12;;;;;;;;;;;;;;;;;;5060033;28;20063;-83
2023/05/22 13:14:39;;;;;;;;;;;;;;;;;;5064325;28;19929;-83
2023/05/22 13:17:05;;;;;;;;;;;;;;;;;;5072751;28;19920;-80
2023/05/22 13:19:31;;;;;;;;;;;;;;;;;;5064330;28;20383;-84
2023/05/22 13:21:56;;;;;;;;;;;;;;;;;;5077324;28;19919;-83
2023/05/22 13:24:21;;;;;;;;;;;;;;;;;;5068619;28;19971;-83
2023/05/22 13:26:47;;;;;;;;;;;;;;;;;;5069355;28;19935;-84
2023/05/22 13:29:12;;;;;;;;;;;;;;;;;;5055697;28;19916;-84
2023/05/22 13:31:40;;;;;;;;;;;;;;;;;;5064218;28;19923;-83
2023/05/22 13:34:06;;;;;;;;;;;;;;;;;;5064600;28;19912;-83
2023/05/22 13:36:31;;;;;;;;;;;;;;;;;;5071200;28;19944;-85
2023/05/22 13:38:57;;;;;;;;;;;;;;;;;;5055660;28;19913;-84
2023/05/22 13:41:22;;;;;;;;;;;;;;;;;;5065218;28;19920;-83
2023/05/22 13:43:48;;;;;;;;;;;;;;;;;;5044157;28;20355;-83
2023/05/22 13:46:13;;;;;;;;;;;;;;;;;;5059823;28;20407;-82
2023/05/22 13:48:41;;;;;;;;;;;;;;;;;;5068068;28;19912;-83
2023/05/22 13:51:07;;;;;;;;;;;;;;;;;;5056091;28;19989;-83
2023/05/22 13:53:33;;;;;;;;;;;;;;;;;;5063850;28;19920;-84
2023/05/22 13:56:00;;;;;;;;;;;;;;;;;;5061892;28;20283;-85
2023/05/22 13:58:25;;;;;;;;;;;;;;;;;;5057972;28;20383;-84
2023/05/22 14:00:56;;;;;;;;;;;;;;;;;;5068067;28;19916;-85
2023/05/22 14:03:22;;;;;;;;;;;;;;;;;;5056847;28;19916;-84
2023/05/22 14:05:47;;;;;;;;;;;;;;;;;;5072414;28;19913;-83
2023/05/22 14:08:18;;;;;;;;;;;;;;;;;;5070175;28;19912;-85
2023/05/22 14:10:44;;;;;;;;;;;;;;;;;;5073336;28;20165;-83
2023/05/22 14:13:09;;;;;;;;;;;;;;;;;;5057332;28;19912;-84
2023/05/22 14:15:35;;;;;;;;;;;;;;;;;;5066907;28;19925;-84
2023/05/22 14:18:03;;;;;;;;;;;;;;;;;;5079241;28;19913;-84
2023/05/22 14:20:31;;;;;;;;;;;;;;;;;;5055726;28;19920;-84
2023/05/22 14:22:56;;;;;;;;;;;;;;;;;;5066924;28;20395;-84
2023/05/22 14:25:24;;;;;;;;;;;;;;;;;;5056546;28;19954;-84
2023/05/22 14:27:50;;;;;;;;;;;;;;;;;;5064305;28;19913;-83
2023/05/22 14:30:15;;;;;;;;;;;;;;;;;;5055881;28;19913;-84
2023/05/22 14:32:41;;;;;;;;;;;;;;;;;;5072703;28;20338;-82
2023/05/22 14:35:11;;;;;;;;;;;;;;;;;;5042208;28;19912;-84
2023/05/22 14:37:39;;;;;;;;;;;;;;;;;;5068095;28;19913;-84
2023/05/22 14:40:08;;;;;;;;;;;;;;;;;;5066799;28;19912;-84
2023/05/22 14:42:33;;;;;;;;;;;;;;;;;;5078076;28;19917;-84
2023/05/22 14:44:59;;;;;;;;;;;;;;;;;;5059685;28;19913;-85
2023/05/22 14:47:27;;;;;;;;;;;;;;;;;;5069484;28;19917;-84
2023/05/22 14:49:53;;;;;;;;;;;;;;;;;;5064837;28;19913;-83
2023/05/22 14:52:18;;;;;;;;;;;;;;;;;;5061801;28;20303;-84
2023/05/22 14:54:44;;;;;;;;;;;;;;;;;;5054812;28;19917;-85
2023/05/22 14:57:09;;;;;;;;;;;;;;;;;;5060811;28;19912;-82
2023/05/22 14:59:35;;;;;;;;;;;;;;;;;;5069359;28;20368;-84
2023/05/22 15:02:00;;;;;;;;;;;;;;;;;;5069714;28;19912;-84
2023/05/22 15:04:26;;;;;;;;;;;;;;;;;;5067087;28;19913;-83
2023/05/22 15:06:51;;;;;;;;;;;;;;;;;;5080392;28;19980;-84
2023/05/22 15:09:17;;;;;;;;;;;;;;;;;;5073983;28;19965;-84
2023/05/22 15:11:45;;;;;;;;;;;;;;;;;;5086119;28;19905;-84
2023/05/22 15:14:10;;;;;;;;;;;;;;;;;;5090154;28;19923;-84
2023/05/22 15:16:41;;;;;;;;;;;;;;;;;;5081254;28;19927;-84
2023/05/22 15:19:06;;;;;;;;;;;;;;;;;;5093902;28;19912;-83
2023/05/22 15:21:31;;;;;;;;;;;;;;;;;;5060037;28;19912;-84
2023/05/22 15:23:57;;;;;;;;;;;;;;;;;;5089482;28;19920;-84
2023/05/22 15:26:23;;;;;;;;;;;;;;;;;;5069770;28;20011;-83
2023/05/22 15:28:51;;;;;;;;;;;;;;;;;;5057717;28;20402;-84
2023/05/22 15:31:16;;;;;;;;;;;;;;;;;;5076250;28;19921;-84
2023/05/22 15:33:42;;;;;;;;;;;;;;;;;;5075038;28;19938;-83
2023/05/22 15:36:15;;;;;;;;;;;;;;;;;;5074791;28;19913;-85
2023/05/22 15:38:41;;;;;;;;;;;;;;;;;;5074288;28;19919;-84
2023/05/22 15:41:06;;;;;;;;;;;;;;;;;;5034694;28;20261;-84
2023/05/22 15:43:35;;;;;;;;;;;;;;;;;;5052706;28;19966;-84
2023/05/22 15:46:00;;;;;;;;;;;;;;;;;;5065942;28;19913;-83
2023/05/22 15:48:26;;;;;;;;;;;;;;;;;;5056447;28;19913;-82
2023/05/22 15:50:51;;;;;;;;;;;;;;;;;;5076213;28;19917;-83
2023/05/22 15:53:16;;;;;;;;;;;;;;;;;;5061795;28;20363;-83
2023/05/22 15:55:42;;;;;;;;;;;;;;;;;;5051367;28;20030;-83
2023/05/22 15:58:07;;;;;;;;;;;;;;;;;;5066015;28;19972;-82
2023/05/22 16:00:37;;;;;;;;;;;;;;;;;;5070606;28;20308;-84
2023/05/22 16:03:03;;;;;;;;;;;;;;;;;;5057667;28;20438;-84
2023/05/22 16:05:30;;;;;;;;;;;;;;;;;;5068330;28;19920;-84
2023/05/22 16:07:55;;;;;;;;;;;;;;;;;;5054658;28;19963;-83
2023/05/22 16:10:21;;;;;;;;;;;;;;;;;;5067661;28;19912;-83
2023/05/22 16:12:49;;;;;;;;;;;;;;;;;;5056506;28;19912;-84
2023/05/22 16:15:17;;;;;;;;;;;;;;;;;;5044241;28;20022;-84
2023/05/22 16:17:43;;;;;;;;;;;;;;;;;;5064990;28;20419;-85
2023/05/22 16:20:08;;;;;;;;;;;;;;;;;;5053418;28;19912;-84
2023/05/22 16:22:34;;;;;;;;;;;;;;;;;;5070541;28;19924;-83
2023/05/22 16:25:00;;;;;;;;;;;;;;;;;;5057747;28;19913;-84
2023/05/22 16:27:25;;;;;;;;;;;;;;;;;;5067085;28;19917;-83
2023/05/22 16:29:51;;;;;;;;;;;;;;;;;;5063377;28;20390;-83
2023/05/22 16:32:16;;;;;;;;;;;;;;;;;;5060717;28;19917;-84
2023/05/22 16:34:41;;;;;;;;;;;;;;;;;;5069866;28;20383;-83
2023/05/22 16:37:10;;;;;;;;;;;;;;;;;;5057848;28;19992;-83
2023/05/22 16:39:35;;;;;;;;;;;;;;;;;;5066516;28;19963;-84
2023/05/22 16:42:03;;;;;;;;;;;;;;;;;;5064707;28;20291;-83
2023/05/22 16:44:29;;;;;;;;;;;;;;;;;;5044676;28;20399;-84
2023/05/22 16:46:54;;;;;;;;;;;;;;;;;;5069522;28;19916;-84
2023/05/22 16:49:20;;;;;;;;;;;;;;;;;;5057677;28;20011;-83